sensor_id;sensor_type;location;lat;lon;timestamp;P1;durP1;ratioP1;P2;durP2;ratioP2
33491;SDS011;20010;51.488;7.232;2024-01-06T00:00:04;23.40;;;19.17;;
33491;SDS011;20010;51.488;7.232;2024-01-06T00:02:31;22.27;;;17.88;;
33491;SDS011;20010;51.488;7.232;2024-01-06T00:04:58;22.10;;;18.58;;
33491;SDS011;20010;51.488;7.232;2024-01-06T00:07:24;22.58;;;18.63;;
33491;SDS011;20010;51.488;7.232;2024-01-06T00:09:51;24.10;;;18.38;;
33491;SDS011;20010;51.488;7.232;2024-01-06T00:12:18;21.98;;;18.67;;
33491;SDS011;20010;51.488;7.232;2024-01-06T00:14:45;24.33;;;19.48;;
33491;SDS011;20010;51.488;7.232;2024-01-06T00:17:11;25.80;;;20.20;;
33491;SDS011;20010;51.488;7.232;2024-01-06T00:19:38;28.33;;;21.67;;
33491;SDS011;20010;51.488;7.232;2024-01-06T00:22:05;25.73;;;19.13;;
33491;SDS011;20010;51.488;7.232;2024-01-06T00:24:31;26.10;;;20.30;;
33491;SDS011;20010;51.488;7.232;2024-01-06T00:26:58;25.27;;;20.85;;
33491;SDS011;20010;51.488;7.232;2024-01-06T00:29:24;24.58;;;20.50;;
33491;SDS011;20010;51.488;7.232;2024-01-06T00:31:51;22.92;;;17.70;;
33491;SDS011;20010;51.488;7.232;2024-01-06T00:34:17;23.58;;;19.13;;
33491;SDS011;20010;51.488;7.232;2024-01-06T00:36:44;24.73;;;19.05;;
33491;SDS011;20010;51.488;7.232;2024-01-06T00:39:11;26.08;;;19.63;;
33491;SDS011;20010;51.488;7.232;2024-01-06T00:41:37;23.52;;;17.98;;
33491;SDS011;20010;51.488;7.232;2024-01-06T00:44:04;24.88;;;19.25;;
33491;SDS011;20010;51.488;7.232;2024-01-06T00:46:31;24.80;;;19.10;;
33491;SDS011;20010;51.488;7.232;2024-01-06T00:48:57;23.98;;;18.90;;
33491;SDS011;20010;51.488;7.232;2024-01-06T00:51:25;24.85;;;20.20;;
33491;SDS011;20010;51.488;7.232;2024-01-06T00:53:52;27.30;;;20.58;;
33491;SDS011;20010;51.488;7.232;2024-01-06T00:56:18;23.40;;;18.58;;
33491;SDS011;20010;51.488;7.232;2024-01-06T00:58:45;22.10;;;18.38;;
33491;SDS011;20010;51.488;7.232;2024-01-06T01:01:11;25.05;;;19.75;;
33491;SDS011;20010;51.488;7.232;2024-01-06T01:03:38;25.50;;;19.23;;
33491;SDS011;20010;51.488;7.232;2024-01-06T01:06:05;24.83;;;18.70;;
33491;SDS011;20010;51.488;7.232;2024-01-06T01:08:31;28.05;;;19.52;;
33491;SDS011;20010;51.488;7.232;2024-01-06T01:10:58;26.55;;;19.10;;
33491;SDS011;20010;51.488;7.232;2024-01-06T01:13:25;26.45;;;19.20;;
33491;SDS011;20010;51.488;7.232;2024-01-06T01:15:51;26.73;;;20.38;;
33491;SDS011;20010;51.488;7.232;2024-01-06T01:18:18;25.88;;;18.50;;
33491;SDS011;20010;51.488;7.232;2024-01-06T01:20:45;25.20;;;19.25;;
33491;SDS011;20010;51.488;7.232;2024-01-06T01:23:11;25.23;;;19.30;;
33491;SDS011;20010;51.488;7.232;2024-01-06T01:25:38;30.73;;;21.25;;
33491;SDS011;20010;51.488;7.232;2024-01-06T01:28:04;26.65;;;19.38;;
33491;SDS011;20010;51.488;7.232;2024-01-06T01:30:31;30.42;;;21.45;;
33491;SDS011;20010;51.488;7.232;2024-01-06T01:32:59;26.40;;;17.70;;
33491;SDS011;20010;51.488;7.232;2024-01-06T01:35:25;28.02;;;19.25;;
33491;SDS011;20010;51.488;7.232;2024-01-06T01:37:52;26.23;;;17.60;;
33491;SDS011;20010;51.488;7.232;2024-01-06T01:40:18;29.15;;;19.67;;
33491;SDS011;20010;51.488;7.232;2024-01-06T01:42:45;28.67;;;19.77;;
33491;SDS011;20010;51.488;7.232;2024-01-06T01:45:12;29.85;;;20.23;;
33491;SDS011;20010;51.488;7.232;2024-01-06T01:47:39;28.08;;;18.83;;
33491;SDS011;20010;51.488;7.232;2024-01-06T01:50:06;31.13;;;19.77;;
33491;SDS011;20010;51.488;7.232;2024-01-06T01:52:33;27.10;;;17.90;;
33491;SDS011;20010;51.488;7.232;2024-01-06T01:55:01;25.80;;;18.13;;
33491;SDS011;20010;51.488;7.232;2024-01-06T01:57:28;28.48;;;18.80;;
33491;SDS011;20010;51.488;7.232;2024-01-06T01:59:54;25.95;;;19.10;;
33491;SDS011;20010;51.488;7.232;2024-01-06T02:02:21;27.75;;;18.77;;
33491;SDS011;20010;51.488;7.232;2024-01-06T02:04:48;30.90;;;22.23;;
33491;SDS011;20010;51.488;7.232;2024-01-06T02:07:15;31.83;;;20.67;;
33491;SDS011;20010;51.488;7.232;2024-01-06T02:09:41;30.90;;;19.55;;
33491;SDS011;20010;51.488;7.232;2024-01-06T02:12:08;28.88;;;20.08;;
33491;SDS011;20010;51.488;7.232;2024-01-06T02:14:35;27.95;;;19.60;;
33491;SDS011;20010;51.488;7.232;2024-01-06T02:17:01;28.80;;;21.10;;
33491;SDS011;20010;51.488;7.232;2024-01-06T02:19:28;32.42;;;20.98;;
33491;SDS011;20010;51.488;7.232;2024-01-06T02:21:54;30.50;;;20.80;;
33491;SDS011;20010;51.488;7.232;2024-01-06T02:24:21;30.92;;;22.77;;
33491;SDS011;20010;51.488;7.232;2024-01-06T02:26:48;33.42;;;22.60;;
33491;SDS011;20010;51.488;7.232;2024-01-06T02:29:15;33.80;;;22.30;;
33491;SDS011;20010;51.488;7.232;2024-01-06T02:31:41;33.35;;;23.00;;
33491;SDS011;20010;51.488;7.232;2024-01-06T02:34:08;30.88;;;22.10;;
33491;SDS011;20010;51.488;7.232;2024-01-06T02:36:36;35.00;;;23.30;;
33491;SDS011;20010;51.488;7.232;2024-01-06T02:39:03;37.30;;;22.67;;
33491;SDS011;20010;51.488;7.232;2024-01-06T02:41:29;37.25;;;25.30;;
33491;SDS011;20010;51.488;7.232;2024-01-06T02:43:56;37.78;;;24.88;;
33491;SDS011;20010;51.488;7.232;2024-01-06T02:46:22;37.53;;;24.75;;
33491;SDS011;20010;51.488;7.232;2024-01-06T02:48:49;37.38;;;23.67;;
33491;SDS011;20010;51.488;7.232;2024-01-06T02:51:16;40.17;;;26.02;;
33491;SDS011;20010;51.488;7.232;2024-01-06T02:53:42;37.47;;;23.05;;
33491;SDS011;20010;51.488;7.232;2024-01-06T02:56:10;44.67;;;28.08;;
33491;SDS011;20010;51.488;7.232;2024-01-06T02:58:37;42.53;;;27.17;;
33491;SDS011;20010;51.488;7.232;2024-01-06T03:01:04;43.13;;;26.05;;
33491;SDS011;20010;51.488;7.232;2024-01-06T03:03:31;42.83;;;26.80;;
33491;SDS011;20010;51.488;7.232;2024-01-06T03:05:57;43.03;;;27.05;;
33491;SDS011;20010;51.488;7.232;2024-01-06T03:08:24;45.50;;;27.02;;
33491;SDS011;20010;51.488;7.232;2024-01-06T03:10:51;45.45;;;28.33;;
33491;SDS011;20010;51.488;7.232;2024-01-06T03:13:17;70.25;;;42.10;;
33491;SDS011;20010;51.488;7.232;2024-01-06T03:15:44;45.97;;;28.73;;
33491;SDS011;20010;51.488;7.232;2024-01-06T03:18:11;42.33;;;27.55;;
33491;SDS011;20010;51.488;7.232;2024-01-06T03:20:37;38.22;;;21.50;;
33491;SDS011;20010;51.488;7.232;2024-01-06T03:23:04;34.95;;;21.63;;
33491;SDS011;20010;51.488;7.232;2024-01-06T03:25:30;29.75;;;19.70;;
33491;SDS011;20010;51.488;7.232;2024-01-06T03:27:57;31.15;;;18.30;;
33491;SDS011;20010;51.488;7.232;2024-01-06T03:30:23;29.75;;;18.52;;
33491;SDS011;20010;51.488;7.232;2024-01-06T03:32:50;31.98;;;19.38;;
33491;SDS011;20010;51.488;7.232;2024-01-06T03:35:17;33.08;;;20.05;;
33491;SDS011;20010;51.488;7.232;2024-01-06T03:37:44;28.15;;;17.75;;
33491;SDS011;20010;51.488;7.232;2024-01-06T03:40:11;28.52;;;18.08;;
33491;SDS011;20010;51.488;7.232;2024-01-06T03:42:38;28.25;;;18.83;;
33491;SDS011;20010;51.488;7.232;2024-01-06T03:45:04;27.85;;;17.83;;
33491;SDS011;20010;51.488;7.232;2024-01-06T03:47:31;27.38;;;17.80;;
33491;SDS011;20010;51.488;7.232;2024-01-06T03:49:58;29.05;;;18.65;;
33491;SDS011;20010;51.488;7.232;2024-01-06T03:52:24;29.70;;;19.77;;
33491;SDS011;20010;51.488;7.232;2024-01-06T03:54:51;26.30;;;16.58;;
33491;SDS011;20010;51.488;7.232;2024-01-06T03:57:18;26.63;;;18.00;;
33491;SDS011;20010;51.488;7.232;2024-01-06T03:59:44;29.30;;;18.45;;
33491;SDS011;20010;51.488;7.232;2024-01-06T04:02:11;30.73;;;19.00;;
33491;SDS011;20010;51.488;7.232;2024-01-06T04:04:37;27.88;;;18.38;;
33491;SDS011;20010;51.488;7.232;2024-01-06T04:07:04;31.48;;;19.90;;
33491;SDS011;20010;51.488;7.232;2024-01-06T04:09:32;31.50;;;18.52;;
33491;SDS011;20010;51.488;7.232;2024-01-06T04:11:59;35.42;;;18.98;;
33491;SDS011;20010;51.488;7.232;2024-01-06T04:14:27;26.48;;;16.80;;
33491;SDS011;20010;51.488;7.232;2024-01-06T04:16:56;29.98;;;18.50;;
33491;SDS011;20010;51.488;7.232;2024-01-06T04:19:23;28.17;;;17.98;;
33491;SDS011;20010;51.488;7.232;2024-01-06T04:21:50;26.80;;;15.80;;
33491;SDS011;20010;51.488;7.232;2024-01-06T04:24:17;22.73;;;14.30;;
33491;SDS011;20010;51.488;7.232;2024-01-06T04:26:44;22.40;;;14.23;;
33491;SDS011;20010;51.488;7.232;2024-01-06T04:29:12;22.08;;;14.15;;
33491;SDS011;20010;51.488;7.232;2024-01-06T04:31:40;21.80;;;14.32;;
33491;SDS011;20010;51.488;7.232;2024-01-06T04:34:07;22.25;;;14.32;;
33491;SDS011;20010;51.488;7.232;2024-01-06T04:36:34;22.42;;;12.95;;
33491;SDS011;20010;51.488;7.232;2024-01-06T04:39:00;20.05;;;13.43;;
33491;SDS011;20010;51.488;7.232;2024-01-06T04:41:27;22.30;;;13.70;;
33491;SDS011;20010;51.488;7.232;2024-01-06T04:43:54;25.55;;;14.70;;
33491;SDS011;20010;51.488;7.232;2024-01-06T04:46:20;25.77;;;15.68;;
33491;SDS011;20010;51.488;7.232;2024-01-06T04:48:47;23.08;;;14.90;;
33491;SDS011;20010;51.488;7.232;2024-01-06T04:51:14;21.67;;;14.57;;
33491;SDS011;20010;51.488;7.232;2024-01-06T04:53:41;20.05;;;13.10;;
33491;SDS011;20010;51.488;7.232;2024-01-06T04:56:08;23.08;;;13.82;;
33491;SDS011;20010;51.488;7.232;2024-01-06T04:58:34;24.50;;;14.15;;
33491;SDS011;20010;51.488;7.232;2024-01-06T05:01:01;24.55;;;15.07;;
33491;SDS011;20010;51.488;7.232;2024-01-06T05:03:28;25.80;;;14.73;;
33491;SDS011;20010;51.488;7.232;2024-01-06T05:05:55;24.13;;;14.60;;
33491;SDS011;20010;51.488;7.232;2024-01-06T05:08:22;22.73;;;13.85;;
33491;SDS011;20010;51.488;7.232;2024-01-06T05:10:50;24.90;;;14.68;;
33491;SDS011;20010;51.488;7.232;2024-01-06T05:13:17;20.95;;;13.80;;
33491;SDS011;20010;51.488;7.232;2024-01-06T05:15:44;23.27;;;14.73;;
33491;SDS011;20010;51.488;7.232;2024-01-06T05:18:10;24.20;;;15.30;;
33491;SDS011;20010;51.488;7.232;2024-01-06T05:20:37;19.52;;;13.43;;
33491;SDS011;20010;51.488;7.232;2024-01-06T05:23:04;21.70;;;13.95;;
33491;SDS011;20010;51.488;7.232;2024-01-06T05:25:30;24.50;;;13.38;;
33491;SDS011;20010;51.488;7.232;2024-01-06T05:27:57;23.00;;;14.38;;
33491;SDS011;20010;51.488;7.232;2024-01-06T05:30:24;22.25;;;14.27;;
33491;SDS011;20010;51.488;7.232;2024-01-06T05:32:52;21.15;;;13.65;;
33491;SDS011;20010;51.488;7.232;2024-01-06T05:35:20;23.67;;;14.80;;
33491;SDS011;20010;51.488;7.232;2024-01-06T05:37:54;22.23;;;14.30;;
33491;SDS011;20010;51.488;7.232;2024-01-06T05:40:23;26.60;;;15.18;;
33491;SDS011;20010;51.488;7.232;2024-01-06T05:42:49;22.65;;;14.27;;
33491;SDS011;20010;51.488;7.232;2024-01-06T05:45:17;23.83;;;15.27;;
33491;SDS011;20010;51.488;7.232;2024-01-06T05:47:44;24.27;;;15.27;;
33491;SDS011;20010;51.488;7.232;2024-01-06T05:50:11;23.77;;;14.63;;
33491;SDS011;20010;51.488;7.232;2024-01-06T05:52:37;23.02;;;15.73;;
33491;SDS011;20010;51.488;7.232;2024-01-06T05:55:04;28.42;;;16.67;;
33491;SDS011;20010;51.488;7.232;2024-01-06T05:57:31;28.73;;;16.40;;
33491;SDS011;20010;51.488;7.232;2024-01-06T05:59:58;27.30;;;15.48;;
33491;SDS011;20010;51.488;7.232;2024-01-06T06:02:25;21.02;;;14.23;;
33491;SDS011;20010;51.488;7.232;2024-01-06T06:04:52;22.55;;;14.38;;
33491;SDS011;20010;51.488;7.232;2024-01-06T06:07:19;21.38;;;14.52;;
33491;SDS011;20010;51.488;7.232;2024-01-06T06:09:47;23.85;;;14.70;;
33491;SDS011;20010;51.488;7.232;2024-01-06T06:12:15;23.30;;;15.65;;
33491;SDS011;20010;51.488;7.232;2024-01-06T06:14:44;22.25;;;13.35;;
33491;SDS011;20010;51.488;7.232;2024-01-06T06:17:10;21.67;;;14.40;;
33491;SDS011;20010;51.488;7.232;2024-01-06T06:19:37;19.52;;;13.10;;
33491;SDS011;20010;51.488;7.232;2024-01-06T06:22:04;18.17;;;12.35;;
33491;SDS011;20010;51.488;7.232;2024-01-06T06:24:31;22.45;;;15.70;;
33491;SDS011;20010;51.488;7.232;2024-01-06T06:26:57;18.20;;;13.27;;
33491;SDS011;20010;51.488;7.232;2024-01-06T06:29:25;24.98;;;16.33;;
33491;SDS011;20010;51.488;7.232;2024-01-06T06:31:52;21.38;;;15.23;;
33491;SDS011;20010;51.488;7.232;2024-01-06T06:34:19;27.25;;;17.45;;
33491;SDS011;20010;51.488;7.232;2024-01-06T06:36:45;26.25;;;16.85;;
33491;SDS011;20010;51.488;7.232;2024-01-06T06:39:12;23.85;;;16.02;;
33491;SDS011;20010;51.488;7.232;2024-01-06T06:41:39;24.50;;;16.23;;
33491;SDS011;20010;51.488;7.232;2024-01-06T06:44:06;22.00;;;15.30;;
33491;SDS011;20010;51.488;7.232;2024-01-06T06:46:32;21.60;;;14.70;;
33491;SDS011;20010;51.488;7.232;2024-01-06T06:49:01;22.13;;;15.02;;
33491;SDS011;20010;51.488;7.232;2024-01-06T06:51:29;24.35;;;16.23;;
33491;SDS011;20010;51.488;7.232;2024-01-06T06:53:56;22.55;;;16.20;;
33491;SDS011;20010;51.488;7.232;2024-01-06T06:56:23;19.90;;;14.63;;
33491;SDS011;20010;51.488;7.232;2024-01-06T06:58:50;22.88;;;15.02;;
33491;SDS011;20010;51.488;7.232;2024-01-06T07:01:16;21.63;;;14.30;;
33491;SDS011;20010;51.488;7.232;2024-01-06T07:03:43;26.05;;;16.70;;
33491;SDS011;20010;51.488;7.232;2024-01-06T07:06:15;25.70;;;16.08;;
33491;SDS011;20010;51.488;7.232;2024-01-06T07:08:43;23.50;;;16.13;;
33491;SDS011;20010;51.488;7.232;2024-01-06T07:11:10;23.60;;;15.75;;
33491;SDS011;20010;51.488;7.232;2024-01-06T07:13:38;30.70;;;19.08;;
33491;SDS011;20010;51.488;7.232;2024-01-06T07:16:05;29.50;;;18.40;;
33491;SDS011;20010;51.488;7.232;2024-01-06T07:18:43;26.05;;;15.90;;
33491;SDS011;20010;51.488;7.232;2024-01-06T07:21:11;23.25;;;15.50;;
33491;SDS011;20010;51.488;7.232;2024-01-06T07:23:38;27.33;;;15.48;;
33491;SDS011;20010;51.488;7.232;2024-01-06T07:26:05;27.52;;;16.60;;
33491;SDS011;20010;51.488;7.232;2024-01-06T07:28:33;25.00;;;16.10;;
33491;SDS011;20010;51.488;7.232;2024-01-06T07:31:00;24.55;;;15.82;;
33491;SDS011;20010;51.488;7.232;2024-01-06T07:33:27;32.55;;;18.67;;
33491;SDS011;20010;51.488;7.232;2024-01-06T07:35:54;27.58;;;16.65;;
33491;SDS011;20010;51.488;7.232;2024-01-06T07:38:20;31.08;;;19.85;;
33491;SDS011;20010;51.488;7.232;2024-01-06T07:40:47;37.67;;;23.30;;
33491;SDS011;20010;51.488;7.232;2024-01-06T07:43:13;31.52;;;19.45;;
33491;SDS011;20010;51.488;7.232;2024-01-06T07:45:41;32.60;;;17.52;;
33491;SDS011;20010;51.488;7.232;2024-01-06T07:48:08;31.23;;;17.52;;
33491;SDS011;20010;51.488;7.232;2024-01-06T07:50:35;36.40;;;18.73;;
33491;SDS011;20010;51.488;7.232;2024-01-06T07:53:02;42.28;;;21.50;;
33491;SDS011;20010;51.488;7.232;2024-01-06T07:55:28;32.38;;;19.77;;
33491;SDS011;20010;51.488;7.232;2024-01-06T07:57:55;40.17;;;19.58;;
33491;SDS011;20010;51.488;7.232;2024-01-06T08:00:22;36.70;;;20.38;;
33491;SDS011;20010;51.488;7.232;2024-01-06T08:02:49;35.72;;;21.13;;
33491;SDS011;20010;51.488;7.232;2024-01-06T08:05:16;42.33;;;22.10;;
33491;SDS011;20010;51.488;7.232;2024-01-06T08:07:42;38.05;;;21.15;;
33491;SDS011;20010;51.488;7.232;2024-01-06T08:10:09;36.35;;;20.13;;
33491;SDS011;20010;51.488;7.232;2024-01-06T08:12:35;31.50;;;18.20;;
33491;SDS011;20010;51.488;7.232;2024-01-06T08:15:03;33.67;;;18.48;;
33491;SDS011;20010;51.488;7.232;2024-01-06T08:17:31;36.47;;;18.70;;
33491;SDS011;20010;51.488;7.232;2024-01-06T08:19:57;33.58;;;18.42;;
33491;SDS011;20010;51.488;7.232;2024-01-06T08:22:24;35.05;;;19.15;;
33491;SDS011;20010;51.488;7.232;2024-01-06T08:24:51;39.17;;;19.05;;
33491;SDS011;20010;51.488;7.232;2024-01-06T08:27:18;33.58;;;18.73;;
33491;SDS011;20010;51.488;7.232;2024-01-06T08:29:45;34.15;;;18.20;;
33491;SDS011;20010;51.488;7.232;2024-01-06T08:32:12;36.60;;;19.65;;
33491;SDS011;20010;51.488;7.232;2024-01-06T08:34:41;32.80;;;16.60;;
33491;SDS011;20010;51.488;7.232;2024-01-06T08:37:07;30.48;;;16.63;;
33491;SDS011;20010;51.488;7.232;2024-01-06T08:39:34;30.38;;;17.88;;
33491;SDS011;20010;51.488;7.232;2024-01-06T08:42:20;28.60;;;15.57;;
33491;SDS011;20010;51.488;7.232;2024-01-06T08:45:01;26.77;;;14.80;;
33491;SDS011;20010;51.488;7.232;2024-01-06T08:47:29;27.88;;;16.48;;
33491;SDS011;20010;51.488;7.232;2024-01-06T08:49:55;32.58;;;15.85;;
33491;SDS011;20010;51.488;7.232;2024-01-06T08:52:22;35.58;;;16.67;;
33491;SDS011;20010;51.488;7.232;2024-01-06T08:54:49;31.67;;;15.40;;
33491;SDS011;20010;51.488;7.232;2024-01-06T08:57:17;31.80;;;17.52;;
33491;SDS011;20010;51.488;7.232;2024-01-06T08:59:44;30.25;;;16.85;;
33491;SDS011;20010;51.488;7.232;2024-01-06T09:02:11;36.08;;;18.00;;
33491;SDS011;20010;51.488;7.232;2024-01-06T09:04:39;31.67;;;18.00;;
33491;SDS011;20010;51.488;7.232;2024-01-06T09:07:05;31.73;;;16.35;;
33491;SDS011;20010;51.488;7.232;2024-01-06T09:09:32;32.17;;;16.75;;
33491;SDS011;20010;51.488;7.232;2024-01-06T09:11:59;28.27;;;16.05;;
33491;SDS011;20010;51.488;7.232;2024-01-06T09:14:26;26.50;;;15.40;;
33491;SDS011;20010;51.488;7.232;2024-01-06T09:16:53;27.10;;;14.13;;
33491;SDS011;20010;51.488;7.232;2024-01-06T09:19:20;24.10;;;13.57;;
33491;SDS011;20010;51.488;7.232;2024-01-06T09:21:48;21.30;;;13.13;;
33491;SDS011;20010;51.488;7.232;2024-01-06T09:24:15;23.27;;;13.95;;
33491;SDS011;20010;51.488;7.232;2024-01-06T09:26:44;21.58;;;12.13;;
33491;SDS011;20010;51.488;7.232;2024-01-06T09:29:12;24.73;;;13.55;;
33491;SDS011;20010;51.488;7.232;2024-01-06T09:31:42;25.50;;;13.32;;
33491;SDS011;20010;51.488;7.232;2024-01-06T09:34:09;21.58;;;10.90;;
33491;SDS011;20010;51.488;7.232;2024-01-06T09:36:36;21.23;;;11.73;;
33491;SDS011;20010;51.488;7.232;2024-01-06T09:39:03;20.45;;;11.93;;
33491;SDS011;20010;51.488;7.232;2024-01-06T09:41:31;21.20;;;12.75;;
33491;SDS011;20010;51.488;7.232;2024-01-06T09:43:58;16.63;;;10.65;;
33491;SDS011;20010;51.488;7.232;2024-01-06T09:46:29;20.05;;;11.18;;
33491;SDS011;20010;51.488;7.232;2024-01-06T09:48:56;21.13;;;11.93;;
33491;SDS011;20010;51.488;7.232;2024-01-06T09:51:24;21.02;;;12.18;;
33491;SDS011;20010;51.488;7.232;2024-01-06T09:53:55;19.85;;;11.02;;
33491;SDS011;20010;51.488;7.232;2024-01-06T09:56:23;21.20;;;11.73;;
33491;SDS011;20010;51.488;7.232;2024-01-06T09:58:50;18.80;;;10.80;;
33491;SDS011;20010;51.488;7.232;2024-01-06T10:01:20;18.08;;;11.55;;
33491;SDS011;20010;51.488;7.232;2024-01-06T10:03:47;17.10;;;11.23;;
33491;SDS011;20010;51.488;7.232;2024-01-06T10:06:14;18.00;;;11.57;;
33491;SDS011;20010;51.488;7.232;2024-01-06T10:08:42;20.42;;;10.93;;
33491;SDS011;20010;51.488;7.232;2024-01-06T10:11:09;17.02;;;11.30;;
33491;SDS011;20010;51.488;7.232;2024-01-06T10:13:38;21.30;;;11.30;;
33491;SDS011;20010;51.488;7.232;2024-01-06T10:16:05;19.60;;;12.07;;
33491;SDS011;20010;51.488;7.232;2024-01-06T10:18:32;18.48;;;11.85;;
33491;SDS011;20010;51.488;7.232;2024-01-06T10:20:59;13.93;;;9.05;;
33491;SDS011;20010;51.488;7.232;2024-01-06T10:23:28;15.35;;;10.05;;
33491;SDS011;20010;51.488;7.232;2024-01-06T10:25:56;14.40;;;8.65;;
33491;SDS011;20010;51.488;7.232;2024-01-06T10:28:26;14.30;;;10.18;;
33491;SDS011;20010;51.488;7.232;2024-01-06T10:30:52;15.80;;;10.13;;
33491;SDS011;20010;51.488;7.232;2024-01-06T10:33:22;14.65;;;9.52;;
33491;SDS011;20010;51.488;7.232;2024-01-06T10:35:49;15.32;;;11.00;;
33491;SDS011;20010;51.488;7.232;2024-01-06T10:38:16;15.77;;;9.55;;
33491;SDS011;20010;51.488;7.232;2024-01-06T10:40:59;17.63;;;10.95;;
33491;SDS011;20010;51.488;7.232;2024-01-06T10:43:26;15.32;;;10.15;;
33491;SDS011;20010;51.488;7.232;2024-01-06T10:45:56;17.70;;;10.57;;
33491;SDS011;20010;51.488;7.232;2024-01-06T10:48:25;15.45;;;10.52;;
33491;SDS011;20010;51.488;7.232;2024-01-06T10:50:53;16.63;;;10.82;;
33491;SDS011;20010;51.488;7.232;2024-01-06T10:53:21;16.02;;;11.07;;
33491;SDS011;20010;51.488;7.232;2024-01-06T10:55:49;20.25;;;12.88;;
33491;SDS011;20010;51.488;7.232;2024-01-06T10:58:21;19.80;;;13.10;;
33491;SDS011;20010;51.488;7.232;2024-01-06T11:00:48;22.20;;;14.32;;
33491;SDS011;20010;51.488;7.232;2024-01-06T11:03:15;22.08;;;14.77;;
33491;SDS011;20010;51.488;7.232;2024-01-06T11:05:43;25.63;;;15.13;;
33491;SDS011;20010;51.488;7.232;2024-01-06T11:08:10;21.83;;;13.73;;
33491;SDS011;20010;51.488;7.232;2024-01-06T11:10:37;17.90;;;12.07;;
33491;SDS011;20010;51.488;7.232;2024-01-06T11:13:11;19.30;;;12.85;;
33491;SDS011;20010;51.488;7.232;2024-01-06T11:15:42;19.55;;;12.05;;
33491;SDS011;20010;51.488;7.232;2024-01-06T11:23:41;18.60;;;11.25;;
33491;SDS011;20010;51.488;7.232;2024-01-06T11:26:08;30.27;;;17.85;;
33491;SDS011;20010;51.488;7.232;2024-01-06T11:28:47;18.23;;;12.95;;
33491;SDS011;20010;51.488;7.232;2024-01-06T11:31:14;22.85;;;12.25;;
33491;SDS011;20010;51.488;7.232;2024-01-06T11:33:42;23.45;;;14.60;;
33491;SDS011;20010;51.488;7.232;2024-01-06T11:36:09;22.85;;;14.00;;
33491;SDS011;20010;51.488;7.232;2024-01-06T11:38:37;24.95;;;15.15;;
33491;SDS011;20010;51.488;7.232;2024-01-06T11:41:04;27.02;;;16.23;;
33491;SDS011;20010;51.488;7.232;2024-01-06T11:43:33;23.58;;;15.85;;
33491;SDS011;20010;51.488;7.232;2024-01-06T11:46:00;32.70;;;16.85;;
33491;SDS011;20010;51.488;7.232;2024-01-06T11:48:30;27.38;;;14.80;;
33491;SDS011;20010;51.488;7.232;2024-01-06T11:51:02;25.27;;;15.65;;
33491;SDS011;20010;51.488;7.232;2024-01-06T11:53:29;25.58;;;13.65;;
33491;SDS011;20010;51.488;7.232;2024-01-06T11:55:56;26.13;;;14.52;;
33491;SDS011;20010;51.488;7.232;2024-01-06T11:58:24;24.75;;;14.77;;
33491;SDS011;20010;51.488;7.232;2024-01-06T12:00:55;22.08;;;14.20;;
33491;SDS011;20010;51.488;7.232;2024-01-06T12:03:21;23.60;;;13.93;;
33491;SDS011;20010;51.488;7.232;2024-01-06T12:06:01;26.48;;;14.18;;
33491;SDS011;20010;51.488;7.232;2024-01-06T12:08:29;20.08;;;13.75;;
33491;SDS011;20010;51.488;7.232;2024-01-06T12:11:05;22.27;;;13.57;;
33491;SDS011;20010;51.488;7.232;2024-01-06T12:13:31;21.25;;;12.27;;
33491;SDS011;20010;51.488;7.232;2024-01-06T12:15:58;25.55;;;15.52;;
33491;SDS011;20010;51.488;7.232;2024-01-06T12:18:25;24.55;;;14.82;;
33491;SDS011;20010;51.488;7.232;2024-01-06T12:20:52;27.23;;;16.10;;
33491;SDS011;20010;51.488;7.232;2024-01-06T12:23:28;26.75;;;15.98;;
33491;SDS011;20010;51.488;7.232;2024-01-06T12:25:55;30.67;;;17.30;;
33491;SDS011;20010;51.488;7.232;2024-01-06T12:28:22;28.23;;;16.38;;
33491;SDS011;20010;51.488;7.232;2024-01-06T12:30:49;31.33;;;17.45;;
33491;SDS011;20010;51.488;7.232;2024-01-06T12:33:16;31.25;;;18.00;;
33491;SDS011;20010;51.488;7.232;2024-01-06T12:35:43;34.17;;;17.42;;
33491;SDS011;20010;51.488;7.232;2024-01-06T12:38:09;33.63;;;16.52;;
33491;SDS011;20010;51.488;7.232;2024-01-06T12:40:36;32.30;;;18.42;;
33491;SDS011;20010;51.488;7.232;2024-01-06T12:43:04;31.52;;;17.38;;
33491;SDS011;20010;51.488;7.232;2024-01-06T12:45:30;36.17;;;18.70;;
33491;SDS011;20010;51.488;7.232;2024-01-06T12:47:57;42.60;;;20.60;;
33491;SDS011;20010;51.488;7.232;2024-01-06T12:50:24;39.70;;;20.45;;
33491;SDS011;20010;51.488;7.232;2024-01-06T12:52:50;37.70;;;22.15;;
33491;SDS011;20010;51.488;7.232;2024-01-06T12:55:17;40.80;;;22.42;;
33491;SDS011;20010;51.488;7.232;2024-01-06T12:57:43;36.35;;;21.70;;
33491;SDS011;20010;51.488;7.232;2024-01-06T13:00:11;34.75;;;20.40;;
33491;SDS011;20010;51.488;7.232;2024-01-06T13:02:38;35.47;;;19.95;;
33491;SDS011;20010;51.488;7.232;2024-01-06T13:05:05;41.58;;;21.77;;
33491;SDS011;20010;51.488;7.232;2024-01-06T13:07:32;40.33;;;21.67;;
33491;SDS011;20010;51.488;7.232;2024-01-06T13:09:58;34.55;;;18.77;;
33491;SDS011;20010;51.488;7.232;2024-01-06T13:12:26;39.08;;;19.95;;
33491;SDS011;20010;51.488;7.232;2024-01-06T13:14:55;38.08;;;21.25;;
33491;SDS011;20010;51.488;7.232;2024-01-06T13:17:22;35.53;;;20.38;;
33491;SDS011;20010;51.488;7.232;2024-01-06T13:19:48;38.03;;;20.60;;
33491;SDS011;20010;51.488;7.232;2024-01-06T13:22:15;36.97;;;19.42;;
33491;SDS011;20010;51.488;7.232;2024-01-06T13:24:44;35.08;;;20.08;;
33491;SDS011;20010;51.488;7.232;2024-01-06T13:27:11;31.02;;;18.58;;
33491;SDS011;20010;51.488;7.232;2024-01-06T13:29:38;29.83;;;16.25;;
33491;SDS011;20010;51.488;7.232;2024-01-06T13:32:04;31.92;;;17.23;;
33491;SDS011;20010;51.488;7.232;2024-01-06T13:34:32;28.85;;;18.55;;
33491;SDS011;20010;51.488;7.232;2024-01-06T13:36:58;32.00;;;19.08;;
33491;SDS011;20010;51.488;7.232;2024-01-06T13:39:25;30.08;;;17.05;;
33491;SDS011;20010;51.488;7.232;2024-01-06T13:41:52;28.23;;;17.48;;
33491;SDS011;20010;51.488;7.232;2024-01-06T13:44:18;31.85;;;19.95;;
33491;SDS011;20010;51.488;7.232;2024-01-06T13:46:45;28.42;;;17.17;;
33491;SDS011;20010;51.488;7.232;2024-01-06T13:49:12;28.25;;;17.20;;
33491;SDS011;20010;51.488;7.232;2024-01-06T13:51:39;34.70;;;20.83;;
33491;SDS011;20010;51.488;7.232;2024-01-06T13:54:06;25.92;;;15.55;;
33491;SDS011;20010;51.488;7.232;2024-01-06T13:56:33;27.25;;;15.93;;
33491;SDS011;20010;51.488;7.232;2024-01-06T13:59:00;24.85;;;14.18;;
33491;SDS011;20010;51.488;7.232;2024-01-06T14:01:27;21.30;;;13.88;;
33491;SDS011;20010;51.488;7.232;2024-01-06T14:03:53;19.30;;;11.77;;
33491;SDS011;20010;51.488;7.232;2024-01-06T14:06:27;18.73;;;11.95;;
33491;SDS011;20010;51.488;7.232;2024-01-06T14:08:57;20.45;;;12.57;;
33491;SDS011;20010;51.488;7.232;2024-01-06T14:11:26;19.52;;;11.73;;
33491;SDS011;20010;51.488;7.232;2024-01-06T14:13:53;20.55;;;12.35;;
33491;SDS011;20010;51.488;7.232;2024-01-06T14:16:19;20.98;;;11.45;;
33491;SDS011;20010;51.488;7.232;2024-01-06T14:18:47;25.90;;;13.93;;
33491;SDS011;20010;51.488;7.232;2024-01-06T14:21:14;18.65;;;12.57;;
33491;SDS011;20010;51.488;7.232;2024-01-06T14:23:42;23.38;;;14.07;;
33491;SDS011;20010;51.488;7.232;2024-01-06T14:26:08;25.52;;;15.10;;